sensor_id;sensor_type;location;lat;lon;timestamp;temperature;humidity
11838;DHT22;5978;51.020;6.764;2023-06-05T00:02:07;16.90;99.90
11838;DHT22;5978;51.020;6.764;2023-06-05T00:04:33;16.90;99.90
11838;DHT22;5978;51.020;6.764;2023-06-05T00:07:01;16.80;99.90
11838;DHT22;5978;51.020;6.764;2023-06-05T00:09:27;16.80;99.90
11838;DHT22;5978;51.020;6.764;2023-06-05T00:11:53;16.80;99.90
11838;DHT22;5978;51.020;6.764;2023-06-05T00:14:18;16.80;99.90
11838;DHT22;5978;51.020;6.764;2023-06-05T00:16:44;16.90;99.90
11838;DHT22;5978;51.020;6.764;2023-06-05T00:19:09;16.90;99.90
11838;DHT22;5978;51.020;6.764;2023-06-05T00:21:35;16.80;99.90
11838;DHT22;5978;51.020;6.764;2023-06-05T00:24:01;16.70;99.90
11838;DHT22;5978;51.020;6.764;2023-06-05T00:26:27;16.50;99.90
11838;DHT22;5978;51.020;6.764;2023-06-05T00:28:52;16.30;99.90
11838;DHT22;5978;51.020;6.764;2023-06-05T00:31:18;16.20;99.90
11838;DHT22;5978;51.020;6.764;2023-06-05T00:33:47;16.20;99.90
11838;DHT22;5978;51.020;6.764;2023-06-05T00:36:13;16.10;99.90
11838;DHT22;5978;51.020;6.764;2023-06-05T00:38:38;16.10;99.90
11838;DHT22;5978;51.020;6.764;2023-06-05T00:41:04;16.10;99.90
11838;DHT22;5978;51.020;6.764;2023-06-05T00:43:30;16.00;99.90
11838;DHT22;5978;51.020;6.764;2023-06-05T00:45:59;16.00;99.90
11838;DHT22;5978;51.020;6.764;2023-06-05T00:48:26;15.80;99.90
11838;DHT22;5978;51.020;6.764;2023-06-05T00:50:52;15.90;99.90
11838;DHT22;5978;51.020;6.764;2023-06-05T00:53:17;15.90;99.90
11838;DHT22;5978;51.020;6.764;2023-06-05T00:55:43;15.80;99.90
11838;DHT22;5978;51.020;6.764;2023-06-05T00:58:09;15.80;99.90
11838;DHT22;5978;51.020;6.764;2023-06-05T01:00:35;15.70;99.90
11838;DHT22;5978;51.020;6.764;2023-06-05T01:03:01;15.70;99.90
11838;DHT22;5978;51.020;6.764;2023-06-05T01:05:28;15.60;99.90
11838;DHT22;5978;51.020;6.764;2023-06-05T01:07:54;15.50;99.90
11838;DHT22;5978;51.020;6.764;2023-06-05T01:10:20;15.50;99.90
11838;DHT22;5978;51.020;6.764;2023-06-05T01:15:48;15.40;99.90
11838;DHT22;5978;51.020;6.764;2023-06-05T01:18:50;15.30;99.90
11838;DHT22;5978;51.020;6.764;2023-06-05T01:21:19;15.20;99.90
11838;DHT22;5978;51.020;6.764;2023-06-05T01:23:44;15.20;99.90
11838;DHT22;5978;51.020;6.764;2023-06-05T01:26:18;15.10;99.90
11838;DHT22;5978;51.020;6.764;2023-06-05T01:28:49;14.90;99.90
11838;DHT22;5978;51.020;6.764;2023-06-05T01:31:18;14.90;99.90
11838;DHT22;5978;51.020;6.764;2023-06-05T01:33:54;14.80;99.90
11838;DHT22;5978;51.020;6.764;2023-06-05T01:36:22;14.90;99.90
11838;DHT22;5978;51.020;6.764;2023-06-05T01:38:49;14.80;99.90
11838;DHT22;5978;51.020;6.764;2023-06-05T01:41:16;14.70;99.90
11838;DHT22;5978;51.020;6.764;2023-06-05T01:43:42;14.70;99.90
11838;DHT22;5978;51.020;6.764;2023-06-05T01:46:09;14.60;99.90
11838;DHT22;5978;51.020;6.764;2023-06-05T01:48:35;14.60;99.90
11838;DHT22;5978;51.020;6.764;2023-06-05T01:51:04;14.50;99.90
11838;DHT22;5978;51.020;6.764;2023-06-05T01:53:30;14.50;99.90
11838;DHT22;5978;51.020;6.764;2023-06-05T01:55:56;14.50;99.90
11838;DHT22;5978;51.020;6.764;2023-06-05T01:58:23;14.50;99.90
11838;DHT22;5978;51.020;6.764;2023-06-05T02:00:49;14.40;99.90
11838;DHT22;5978;51.020;6.764;2023-06-05T02:03:15;14.30;99.90
11838;DHT22;5978;51.020;6.764;2023-06-05T02:05:44;14.30;99.90
11838;DHT22;5978;51.020;6.764;2023-06-05T02:08:10;14.20;99.90
11838;DHT22;5978;51.020;6.764;2023-06-05T02:10:38;14.20;99.90
11838;DHT22;5978;51.020;6.764;2023-06-05T02:13:08;14.20;99.90
11838;DHT22;5978;51.020;6.764;2023-06-05T02:15:34;14.10;99.90
11838;DHT22;5978;51.020;6.764;2023-06-05T02:18:02;14.00;99.90
11838;DHT22;5978;51.020;6.764;2023-06-05T02:20:28;14.00;99.90
11838;DHT22;5978;51.020;6.764;2023-06-05T02:22:54;14.00;99.90
11838;DHT22;5978;51.020;6.764;2023-06-05T02:25:21;14.00;99.90
11838;DHT22;5978;51.020;6.764;2023-06-05T02:27:47;13.90;99.90
11838;DHT22;5978;51.020;6.764;2023-06-05T02:33:30;13.70;99.90
11838;DHT22;5978;51.020;6.764;2023-06-05T02:35:56;13.80;99.90
11838;DHT22;5978;51.020;6.764;2023-06-05T02:38:21;13.70;99.90
11838;DHT22;5978;51.020;6.764;2023-06-05T02:40:48;13.80;99.90
11838;DHT22;5978;51.020;6.764;2023-06-05T02:43:14;13.80;99.90
11838;DHT22;5978;51.020;6.764;2023-06-05T02:45:42;13.90;99.90
11838;DHT22;5978;51.020;6.764;2023-06-05T02:48:08;13.80;99.90
11838;DHT22;5978;51.020;6.764;2023-06-05T02:50:34;13.90;99.90
11838;DHT22;5978;51.020;6.764;2023-06-05T02:52:59;14.00;99.90
11838;DHT22;5978;51.020;6.764;2023-06-05T02:55:25;14.00;99.90
11838;DHT22;5978;51.020;6.764;2023-06-05T02:57:55;13.90;99.90
11838;DHT22;5978;51.020;6.764;2023-06-05T03:00:23;14.00;99.90
11838;DHT22;5978;51.020;6.764;2023-06-05T03:02:48;14.00;99.90
11838;DHT22;5978;51.020;6.764;2023-06-05T03:05:17;14.10;99.90
11838;DHT22;5978;51.020;6.764;2023-06-05T03:07:52;14.10;99.90
11838;DHT22;5978;51.020;6.764;2023-06-05T03:10:21;14.10;99.90
11838;DHT22;5978;51.020;6.764;2023-06-05T03:13:02;14.10;99.90
11838;DHT22;5978;51.020;6.764;2023-06-05T03:15:28;14.20;99.90
11838;DHT22;5978;51.020;6.764;2023-06-05T03:17:53;14.10;99.90
11838;DHT22;5978;51.020;6.764;2023-06-05T03:20:19;14.10;99.90
11838;DHT22;5978;51.020;6.764;2023-06-05T03:22:45;14.20;99.90
11838;DHT22;5978;51.020;6.764;2023-06-05T03:25:12;14.10;99.90
11838;DHT22;5978;51.020;6.764;2023-06-05T03:27:44;14.10;99.90
11838;DHT22;5978;51.020;6.764;2023-06-05T03:30:11;14.10;99.90
11838;DHT22;5978;51.020;6.764;2023-06-05T03:32:41;14.10;99.90
11838;DHT22;5978;51.020;6.764;2023-06-05T03:35:07;14.10;99.90
11838;DHT22;5978;51.020;6.764;2023-06-05T03:37:34;14.00;99.90
11838;DHT22;5978;51.020;6.764;2023-06-05T03:39:59;14.10;99.90
11838;DHT22;5978;51.020;6.764;2023-06-05T03:42:25;14.10;99.90
11838;DHT22;5978;51.020;6.764;2023-06-05T03:44:50;14.00;99.90
11838;DHT22;5978;51.020;6.764;2023-06-05T03:47:16;14.00;99.90
11838;DHT22;5978;51.020;6.764;2023-06-05T03:49:42;14.00;99.90
11838;DHT22;5978;51.020;6.764;2023-06-05T03:52:13;14.10;99.90
11838;DHT22;5978;51.020;6.764;2023-06-05T03:54:40;14.10;99.90
11838;DHT22;5978;51.020;6.764;2023-06-05T03:57:06;14.10;99.90
11838;DHT22;5978;51.020;6.764;2023-06-05T03:59:35;14.10;99.90
11838;DHT22;5978;51.020;6.764;2023-06-05T04:02:00;14.10;99.90
11838;DHT22;5978;51.020;6.764;2023-06-05T04:04:27;14.00;99.90
11838;DHT22;5978;51.020;6.764;2023-06-05T04:06:54;14.10;99.90
11838;DHT22;5978;51.020;6.764;2023-06-05T04:09:23;14.20;99.90
11838;DHT22;5978;51.020;6.764;2023-06-05T04:11:49;14.10;99.90
11838;DHT22;5978;51.020;6.764;2023-06-05T04:14:15;14.20;99.90
11838;DHT22;5978;51.020;6.764;2023-06-05T04:16:41;14.10;99.90
11838;DHT22;5978;51.020;6.764;2023-06-05T04:19:09;14.10;99.90
11838;DHT22;5978;51.020;6.764;2023-06-05T04:21:36;14.10;99.90
11838;DHT22;5978;51.020;6.764;2023-06-05T04:24:03;14.10;99.90
11838;DHT22;5978;51.020;6.764;2023-06-05T04:26:33;14.10;99.90
11838;DHT22;5978;51.020;6.764;2023-06-05T04:28:59;14.10;99.90
11838;DHT22;5978;51.020;6.764;2023-06-05T04:31:24;14.20;99.90
11838;DHT22;5978;51.020;6.764;2023-06-05T04:33:52;14.20;99.90
11838;DHT22;5978;51.020;6.764;2023-06-05T04:36:17;14.20;99.90
11838;DHT22;5978;51.020;6.764;2023-06-05T04:38:44;14.30;99.90
11838;DHT22;5978;51.020;6.764;2023-06-05T04:41:10;14.40;99.90
11838;DHT22;5978;51.020;6.764;2023-06-05T04:43:36;14.40;99.90
11838;DHT22;5978;51.020;6.764;2023-06-05T04:46:02;14.50;99.90
11838;DHT22;5978;51.020;6.764;2023-06-05T04:48:28;14.60;99.90
11838;DHT22;5978;51.020;6.764;2023-06-05T04:50:54;14.60;99.90
11838;DHT22;5978;51.020;6.764;2023-06-05T04:53:21;14.70;99.90
11838;DHT22;5978;51.020;6.764;2023-06-05T04:55:47;14.80;99.90
11838;DHT22;5978;51.020;6.764;2023-06-05T04:58:14;14.80;99.90
11838;DHT22;5978;51.020;6.764;2023-06-05T05:00:42;14.80;99.90
11838;DHT22;5978;51.020;6.764;2023-06-05T05:03:10;14.90;99.90
11838;DHT22;5978;51.020;6.764;2023-06-05T05:05:39;14.90;99.90
11838;DHT22;5978;51.020;6.764;2023-06-05T05:08:05;15.10;99.90
11838;DHT22;5978;51.020;6.764;2023-06-05T05:10:31;15.10;99.90
11838;DHT22;5978;51.020;6.764;2023-06-05T05:12:56;15.10;99.90
11838;DHT22;5978;51.020;6.764;2023-06-05T05:15:26;15.20;99.90
11838;DHT22;5978;51.020;6.764;2023-06-05T05:17:52;15.30;99.90
11838;DHT22;5978;51.020;6.764;2023-06-05T05:20:18;15.40;99.90
11838;DHT22;5978;51.020;6.764;2023-06-05T05:22:44;15.50;99.90
11838;DHT22;5978;51.020;6.764;2023-06-05T05:25:10;15.50;99.90
11838;DHT22;5978;51.020;6.764;2023-06-05T05:27:36;15.50;99.90
11838;DHT22;5978;51.020;6.764;2023-06-05T05:30:02;15.50;99.90
11838;DHT22;5978;51.020;6.764;2023-06-05T05:32:28;15.60;99.90
11838;DHT22;5978;51.020;6.764;2023-06-05T05:34:53;15.80;99.90
11838;DHT22;5978;51.020;6.764;2023-06-05T05:37:19;15.80;99.90
11838;DHT22;5978;51.020;6.764;2023-06-05T05:39:44;15.80;99.90
11838;DHT22;5978;51.020;6.764;2023-06-05T05:42:10;15.90;99.90
11838;DHT22;5978;51.020;6.764;2023-06-05T05:44:39;15.90;99.90
11838;DHT22;5978;51.020;6.764;2023-06-05T05:47:08;16.00;99.90
11838;DHT22;5978;51.020;6.764;2023-06-05T05:49:34;16.20;99.90
11838;DHT22;5978;51.020;6.764;2023-06-05T05:51:59;16.30;99.90
11838;DHT22;5978;51.020;6.764;2023-06-05T05:54:25;16.40;99.90
11838;DHT22;5978;51.020;6.764;2023-06-05T05:56:53;16.50;99.90
11838;DHT22;5978;51.020;6.764;2023-06-05T05:59:19;16.60;99.90
11838;DHT22;5978;51.020;6.764;2023-06-05T06:01:45;16.70;99.90
11838;DHT22;5978;51.020;6.764;2023-06-05T06:04:11;16.60;99.90
11838;DHT22;5978;51.020;6.764;2023-06-05T06:06:37;16.70;99.90
11838;DHT22;5978;51.020;6.764;2023-06-05T06:09:05;16.80;99.90
11838;DHT22;5978;51.020;6.764;2023-06-05T06:11:33;17.00;99.90
11838;DHT22;5978;51.020;6.764;2023-06-05T06:13:59;17.10;99.90
11838;DHT22;5978;51.020;6.764;2023-06-05T06:16:25;17.10;99.90
11838;DHT22;5978;51.020;6.764;2023-06-05T06:18:51;17.20;99.90
11838;DHT22;5978;51.020;6.764;2023-06-05T06:21:17;17.30;99.90
11838;DHT22;5978;51.020;6.764;2023-06-05T06:23:44;17.40;99.90
11838;DHT22;5978;51.020;6.764;2023-06-05T06:26:10;17.60;99.90
11838;DHT22;5978;51.020;6.764;2023-06-05T06:28:37;17.80;99.90
11838;DHT22;5978;51.020;6.764;2023-06-05T06:31:03;18.00;99.90
11838;DHT22;5978;51.020;6.764;2023-06-05T06:33:28;18.00;99.90
11838;DHT22;5978;51.020;6.764;2023-06-05T06:35:55;18.00;99.90
11838;DHT22;5978;51.020;6.764;2023-06-05T06:38:24;18.10;99.90
11838;DHT22;5978;51.020;6.764;2023-06-05T06:40:56;18.20;99.90
11838;DHT22;5978;51.020;6.764;2023-06-05T06:43:21;18.40;99.90
11838;DHT22;5978;51.020;6.764;2023-06-05T06:45:47;18.50;99.90
11838;DHT22;5978;51.020;6.764;2023-06-05T06:48:15;18.40;99.90
11838;DHT22;5978;51.020;6.764;2023-06-05T06:50:42;18.50;99.90
11838;DHT22;5978;51.020;6.764;2023-06-05T06:53:08;18.70;99.90
11838;DHT22;5978;51.020;6.764;2023-06-05T06:55:34;18.90;99.90
11838;DHT22;5978;51.020;6.764;2023-06-05T06:57:59;19.10;99.90
11838;DHT22;5978;51.020;6.764;2023-06-05T07:00:25;19.30;99.90
11838;DHT22;5978;51.020;6.764;2023-06-05T07:02:51;19.40;99.90
11838;DHT22;5978;51.020;6.764;2023-06-05T07:05:16;19.40;99.90
11838;DHT22;5978;51.020;6.764;2023-06-05T07:07:45;19.50;99.90
11838;DHT22;5978;51.020;6.764;2023-06-05T07:10:11;19.70;99.90
11838;DHT22;5978;51.020;6.764;2023-06-05T07:12:36;19.80;99.90
11838;DHT22;5978;51.020;6.764;2023-06-05T07:15:03;20.00;99.90
11838;DHT22;5978;51.020;6.764;2023-06-05T07:17:28;20.10;99.90
11838;DHT22;5978;51.020;6.764;2023-06-05T07:19:56;20.20;99.90
11838;DHT22;5978;51.020;6.764;2023-06-05T07:22:22;20.30;99.90
11838;DHT22;5978;51.020;6.764;2023-06-05T07:25:02;20.50;99.90
11838;DHT22;5978;51.020;6.764;2023-06-05T07:27:38;20.60;99.90
11838;DHT22;5978;51.020;6.764;2023-06-05T07:30:06;20.70;99.90
11838;DHT22;5978;51.020;6.764;2023-06-05T07:32:32;20.70;99.90
11838;DHT22;5978;51.020;6.764;2023-06-05T07:34:58;20.60;99.90
11838;DHT22;5978;51.020;6.764;2023-06-05T07:37:45;20.80;99.90
11838;DHT22;5978;51.020;6.764;2023-06-05T07:40:11;21.10;99.90
11838;DHT22;5978;51.020;6.764;2023-06-05T07:42:36;21.30;99.90
11838;DHT22;5978;51.020;6.764;2023-06-05T07:45:02;21.40;99.90
11838;DHT22;5978;51.020;6.764;2023-06-05T07:47:28;21.70;99.90
11838;DHT22;5978;51.020;6.764;2023-06-05T07:49:58;21.80;99.90
11838;DHT22;5978;51.020;6.764;2023-06-05T07:52:24;21.90;99.90
11838;DHT22;5978;51.020;6.764;2023-06-05T07:55:05;21.90;99.90
11838;DHT22;5978;51.020;6.764;2023-06-05T07:57:33;21.90;99.90
11838;DHT22;5978;51.020;6.764;2023-06-05T07:59:58;22.10;99.90
11838;DHT22;5978;51.020;6.764;2023-06-05T08:02:24;22.30;99.90
11838;DHT22;5978;51.020;6.764;2023-06-05T08:04:50;22.40;99.90
11838;DHT22;5978;51.020;6.764;2023-06-05T08:07:15;22.30;99.90
11838;DHT22;5978;51.020;6.764;2023-06-05T08:09:41;22.30;99.90
11838;DHT22;5978;51.020;6.764;2023-06-05T08:12:07;22.20;99.90
11838;DHT22;5978;51.020;6.764;2023-06-05T08:14:34;22.50;99.90
11838;DHT22;5978;51.020;6.764;2023-06-05T08:17:00;22.60;99.90
11838;DHT22;5978;51.020;6.764;2023-06-05T08:19:25;22.80;99.90
11838;DHT22;5978;51.020;6.764;2023-06-05T08:21:52;22.70;99.90
11838;DHT22;5978;51.020;6.764;2023-06-05T08:24:22;22.60;99.90
11838;DHT22;5978;51.020;6.764;2023-06-05T08:26:47;22.80;97.20
11838;DHT22;5978;51.020;6.764;2023-06-05T08:29:13;23.10;96.50
11838;DHT22;5978;51.020;6.764;2023-06-05T08:31:39;23.20;97.10
11838;DHT22;5978;51.020;6.764;2023-06-05T08:34:05;23.30;98.20
11838;DHT22;5978;51.020;6.764;2023-06-05T08:36:31;23.50;98.50
11838;DHT22;5978;51.020;6.764;2023-06-05T08:38:58;23.80;97.20
11838;DHT22;5978;51.020;6.764;2023-06-05T08:41:25;23.80;96.40
11838;DHT22;5978;51.020;6.764;2023-06-05T08:43:51;23.80;97.60
11838;DHT22;5978;51.020;6.764;2023-06-05T08:46:17;24.10;99.00
11838;DHT22;5978;51.020;6.764;2023-06-05T08:48:47;24.20;94.60
11838;DHT22;5978;51.020;6.764;2023-06-05T08:51:17;24.30;92.40
11838;DHT22;5978;51.020;6.764;2023-06-05T08:54:03;24.40;93.50
11838;DHT22;5978;51.020;6.764;2023-06-05T08:56:39;24.60;93.40
11838;DHT22;5978;51.020;6.764;2023-06-05T08:59:06;24.80;90.80
11838;DHT22;5978;51.020;6.764;2023-06-05T09:01:31;24.80;89.80
11838;DHT22;5978;51.020;6.764;2023-06-05T09:04:01;24.90;88.00
11838;DHT22;5978;51.020;6.764;2023-06-05T09:06:33;25.00;87.80
11838;DHT22;5978;51.020;6.764;2023-06-05T09:08:59;25.20;86.70
11838;DHT22;5978;51.020;6.764;2023-06-05T09:11:30;25.20;85.10
11838;DHT22;5978;51.020;6.764;2023-06-05T09:13:58;25.20;85.50
11838;DHT22;5978;51.020;6.764;2023-06-05T09:16:43;25.20;85.50
11838;DHT22;5978;51.020;6.764;2023-06-05T09:19:10;25.40;86.70
11838;DHT22;5978;51.020;6.764;2023-06-05T09:21:39;25.60;80.90
11838;DHT22;5978;51.020;6.764;2023-06-05T09:24:19;25.50;81.50
11838;DHT22;5978;51.020;6.764;2023-06-05T09:27:00;25.80;82.40
11838;DHT22;5978;51.020;6.764;2023-06-05T09:29:34;25.90;77.60
11838;DHT22;5978;51.020;6.764;2023-06-05T09:32:01;25.90;80.20
11838;DHT22;5978;51.020;6.764;2023-06-05T09:34:42;25.90;78.90
11838;DHT22;5978;51.020;6.764;2023-06-05T09:37:11;26.00;75.70
11838;DHT22;5978;51.020;6.764;2023-06-05T09:39:41;26.10;68.20
11838;DHT22;5978;51.020;6.764;2023-06-05T09:42:11;26.20;67.70
11838;DHT22;5978;51.020;6.764;2023-06-05T09:44:37;26.20;68.50
11838;DHT22;5978;51.020;6.764;2023-06-05T09:47:07;25.90;67.90
11838;DHT22;5978;51.020;6.764;2023-06-05T09:52:08;26.00;66.90
11838;DHT22;5978;51.020;6.764;2023-06-05T09:54:36;26.10;69.70
11838;DHT22;5978;51.020;6.764;2023-06-05T09:57:04;26.20;68.30
11838;DHT22;5978;51.020;6.764;2023-06-05T09:59:32;26.40;67.30
11838;DHT22;5978;51.020;6.764;2023-06-05T10:02:06;26.60;61.10
11838;DHT22;5978;51.020;6.764;2023-06-05T10:04:40;26.60;61.40
11838;DHT22;5978;51.020;6.764;2023-06-05T10:07:24;26.40;61.20
11838;DHT22;5978;51.020;6.764;2023-06-05T10:09:50;26.50;60.80
11838;DHT22;5978;51.020;6.764;2023-06-05T10:12:16;26.80;62.30
11838;DHT22;5978;51.020;6.764;2023-06-05T10:14:43;26.90;59.70
11838;DHT22;5978;51.020;6.764;2023-06-05T10:17:12;26.80;58.20
11838;DHT22;5978;51.020;6.764;2023-06-05T10:19:42;27.00;57.90
11838;DHT22;5978;51.020;6.764;2023-06-05T10:22:13;27.30;59.00
11838;DHT22;5978;51.020;6.764;2023-06-05T10:24:46;27.50;60.60
11838;DHT22;5978;51.020;6.764;2023-06-05T10:33:21;27.80;54.40
11838;DHT22;5978;51.020;6.764;2023-06-05T10:36:05;27.60;54.10
11838;DHT22;5978;51.020;6.764;2023-06-05T10:38:35;27.60;53.30
11838;DHT22;5978;51.020;6.764;2023-06-05T10:41:02;27.80;53.80
11838;DHT22;5978;51.020;6.764;2023-06-05T10:43:32;27.70;53.70
11838;DHT22;5978;51.020;6.764;2023-06-05T10:46:01;27.80;53.50
11838;DHT22;5978;51.020;6.764;2023-06-05T10:51:41;28.10;52.60
11838;DHT22;5978;51.020;6.764;2023-06-05T10:54:53;27.70;52.50
11838;DHT22;5978;51.020;6.764;2023-06-05T10:57:02;27.90;54.00
11838;DHT22;5978;51.020;6.764;2023-06-05T10:59:33;27.90;53.30
11838;DHT22;5978;51.020;6.764;2023-06-05T11:07:20;28.80;52.70
11838;DHT22;5978;51.020;6.764;2023-06-05T11:17:48;29.20;49.30
11838;DHT22;5978;51.020;6.764;2023-06-05T11:27:51;30.00;49.00
11838;DHT22;5978;51.020;6.764;2023-06-05T11:30:19;30.20;49.30
11838;DHT22;5978;51.020;6.764;2023-06-05T11:32:46;29.90;48.60
11838;DHT22;5978;51.020;6.764;2023-06-05T11:35:12;30.00;47.40
11838;DHT22;5978;51.020;6.764;2023-06-05T11:37:38;30.20;47.70
11838;DHT22;5978;51.020;6.764;2023-06-05T11:40:06;29.90;46.50
11838;DHT22;5978;51.020;6.764;2023-06-05T11:42:38;30.40;48.00
11838;DHT22;5978;51.020;6.764;2023-06-05T11:45:14;30.80;46.90
11838;DHT22;5978;51.020;6.764;2023-06-05T11:47:40;30.90;46.80
11838;DHT22;5978;51.020;6.764;2023-06-05T11:50:13;30.60;46.90
11838;DHT22;5978;51.020;6.764;2023-06-05T11:52:40;30.80;46.30
11838;DHT22;5978;51.020;6.764;2023-06-05T11:55:19;30.70;46.60
11838;DHT22;5978;51.020;6.764;2023-06-05T11:57:55;30.80;46.20
11838;DHT22;5978;51.020;6.764;2023-06-05T12:00:25;31.50;47.10
11838;DHT22;5978;51.020;6.764;2023-06-05T12:02:51;32.00;45.90
11838;DHT22;5978;51.020;6.764;2023-06-05T12:05:17;32.80;45.80
11838;DHT22;5978;51.020;6.764;2023-06-05T12:07:43;33.20;45.90
11838;DHT22;5978;51.020;6.764;2023-06-05T12:10:09;33.60;46.60
11838;DHT22;5978;51.020;6.764;2023-06-05T12:12:51;33.90;44.50
11838;DHT22;5978;51.020;6.764;2023-06-05T12:15:18;34.00;44.60
11838;DHT22;5978;51.020;6.764;2023-06-05T12:17:51;33.80;44.40
11838;DHT22;5978;51.020;6.764;2023-06-05T12:20:18;33.80;43.90
11838;DHT22;5978;51.020;6.764;2023-06-05T12:22:44;33.90;44.50
11838;DHT22;5978;51.020;6.764;2023-06-05T12:25:17;33.40;44.00
11838;DHT22;5978;51.020;6.764;2023-06-05T12:27:43;34.10;43.80
11838;DHT22;5978;51.020;6.764;2023-06-05T12:30:11;34.50;43.10
11838;DHT22;5978;51.020;6.764;2023-06-05T12:32:38;34.20;42.30
11838;DHT22;5978;51.020;6.764;2023-06-05T12:35:18;34.30;42.90
11838;DHT22;5978;51.020;6.764;2023-06-05T12:37:44;34.60;42.90
11838;DHT22;5978;51.020;6.764;2023-06-05T12:40:11;34.60;43.00
11838;DHT22;5978;51.020;6.764;2023-06-05T12:42:39;34.80;42.90
11838;DHT22;5978;51.020;6.764;2023-06-05T12:45:05;35.30;42.90
11838;DHT22;5978;51.020;6.764;2023-06-05T12:47:32;35.40;41.90
11838;DHT22;5978;51.020;6.764;2023-06-05T12:49:58;35.40;42.50
11838;DHT22;5978;51.020;6.764;2023-06-05T12:52:24;36.10;41.70
11838;DHT22;5978;51.020;6.764;2023-06-05T12:54:56;36.30;42.00
11838;DHT22;5978;51.020;6.764;2023-06-05T12:57:23;36.30;40.90
11838;DHT22;5978;51.020;6.764;2023-06-05T12:59:49;36.20;40.90
11838;DHT22;5978;51.020;6.764;2023-06-05T13:02:15;35.70;41.50
11838;DHT22;5978;51.020;6.764;2023-06-05T13:04:42;35.80;41.90
11838;DHT22;5978;51.020;6.764;2023-06-05T13:07:07;35.80;42.30
11838;DHT22;5978;51.020;6.764;2023-06-05T13:09:33;35.80;41.20
11838;DHT22;5978;51.020;6.764;2023-06-05T13:12:00;36.50;41.10
11838;DHT22;5978;51.020;6.764;2023-06-05T13:14:25;36.90;41.60
11838;DHT22;5978;51.020;6.764;2023-06-05T13:16:51;37.00;40.30
11838;DHT22;5978;51.020;6.764;2023-06-05T13:19:17;36.60;39.90
11838;DHT22;5978;51.020;6.764;2023-06-05T13:21:43;36.50;39.60
11838;DHT22;5978;51.020;6.764;2023-06-05T13:24:08;36.50;39.90
11838;DHT22;5978;51.020;6.764;2023-06-05T13:26:34;36.40;40.40
11838;DHT22;5978;51.020;6.764;2023-06-05T13:29:00;36.80;40.40
11838;DHT22;5978;51.020;6.764;2023-06-05T13:31:25;35.90;39.40
11838;DHT22;5978;51.020;6.764;2023-06-05T13:33:51;35.60;40.30
11838;DHT22;5978;51.020;6.764;2023-06-05T13:36:16;36.20;40.20
11838;DHT22;5978;51.020;6.764;2023-06-05T13:38:42;35.70;39.80
11838;DHT22;5978;51.020;6.764;2023-06-05T13:41:08;36.60;40.50
11838;DHT22;5978;51.020;6.764;2023-06-05T13:43:34;37.20;39.40
11838;DHT22;5978;51.020;6.764;2023-06-05T13:46:00;37.80;39.20
11838;DHT22;5978;51.020;6.764;2023-06-05T13:48:27;37.70;39.10
11838;DHT22;5978;51.020;6.764;2023-06-05T13:50:52;37.60;38.30
11838;DHT22;5978;51.020;6.764;2023-06-05T13:53:18;38.10;38.30
11838;DHT22;5978;51.020;6.764;2023-06-05T13:55:43;38.20;38.60
11838;DHT22;5978;51.020;6.764;2023-06-05T13:58:09;38.80;38.00
11838;DHT22;5978;51.020;6.764;2023-06-05T14:00:36;38.80;37.80
11838;DHT22;5978;51.020;6.764;2023-06-05T14:03:02;38.00;37.00
11838;DHT22;5978;51.020;6.764;2023-06-05T14:05:28;36.10;37.20
11838;DHT22;5978;51.020;6.764;2023-06-05T14:07:55;36.00;39.70
11838;DHT22;5978;51.020;6.764;2023-06-05T14:10:23;35.70;39.00
11838;DHT22;5978;51.020;6.764;2023-06-05T14:12:49;36.90;39.10
11838;DHT22;5978;51.020;6.764;2023-06-05T14:15:16;37.30;38.10
11838;DHT22;5978;51.020;6.764;2023-06-05T14:17:44;37.00;38.30
11838;DHT22;5978;51.020;6.764;2023-06-05T14:20:10;36.80;37.90
11838;DHT22;5978;51.020;6.764;2023-06-05T14:22:37;36.90;38.70
11838;DHT22;5978;51.020;6.764;2023-06-05T14:25:03;37.00;38.00
11838;DHT22;5978;51.020;6.764;2023-06-05T14:27:30;37.50;39.00
11838;DHT22;5978;51.020;6.764;2023-06-05T14:29:55;36.30;37.60
11838;DHT22;5978;51.020;6.764;2023-06-05T14:32:21;36.70;38.50
11838;DHT22;5978;51.020;6.764;2023-06-05T14:34:47;38.00;38.70
11838;DHT22;5978;51.020;6.764;2023-06-05T14:37:13;38.80;37.50
11838;DHT22;5978;51.020;6.764;2023-06-05T14:39:38;38.40;36.80
11838;DHT22;5978;51.020;6.764;2023-06-05T14:42:05;39.10;36.90
11838;DHT22;5978;51.020;6.764;2023-06-05T14:44:31;39.00;36.70
11838;DHT22;5978;51.020;6.764;2023-06-05T14:46:57;39.10;36.60
11838;DHT22;5978;51.020;6.764;2023-06-05T14:49:26;39.30;36.90
11838;DHT22;5978;51.020;6.764;2023-06-05T14:51:51;39.80;36.80
11838;DHT22;5978;51.020;6.764;2023-06-05T14:54:17;39.60;37.00
11838;DHT22;5978;51.020;6.764;2023-06-05T14:56:43;39.00;36.30
11838;DHT22;5978;51.020;6.764;2023-06-05T14:59:09;38.80;36.60
11838;DHT22;5978;51.020;6.764;2023-06-05T15:01:35;37.80;36.50
11838;DHT22;5978;51.020;6.764;2023-06-05T15:04:02;37.50;37.40
11838;DHT22;5978;51.020;6.764;2023-06-05T15:06:27;37.80;37.40
11838;DHT22;5978;51.020;6.764;2023-06-05T15:08:53;37.30;37.10
11838;DHT22;5978;51.020;6.764;2023-06-05T15:11:18;37.30;38.00
11838;DHT22;5978;51.020;6.764;2023-06-05T15:13:44;37.60;37.70
11838;DHT22;5978;51.020;6.764;2023-06-05T15:16:10;36.20;38.00
11838;DHT22;5978;51.020;6.764;2023-06-05T15:18:35;36.40;38.60
11838;DHT22;5978;51.020;6.764;2023-06-05T15:21:01;37.10;39.10
11838;DHT22;5978;51.020;6.764;2023-06-05T15:23:27;36.90;37.10
11838;DHT22;5978;51.020;6.764;2023-06-05T15:25:52;36.40;37.70
11838;DHT22;5978;51.020;6.764;2023-06-05T15:28:18;36.60;38.40
11838;DHT22;5978;51.020;6.764;2023-06-05T15:30:44;35.80;38.10
11838;DHT22;5978;51.020;6.764;2023-06-05T15:33:09;35.10;38.80
11838;DHT22;5978;51.020;6.764;2023-06-05T15:35:36;35.30;38.80
11838;DHT22;5978;51.020;6.764;2023-06-05T15:38:08;35.00;38.60
11838;DHT22;5978;51.020;6.764;2023-06-05T15:40:34;35.30;39.30
11838;DHT22;5978;51.020;6.764;2023-06-05T15:43:09;34.10;39.80
11838;DHT22;5978;51.020;6.764;2023-06-05T15:45:35;32.90;40.30
11838;DHT22;5978;51.020;6.764;2023-06-05T15:48:02;31.90;41.40
11838;DHT22;5978;51.020;6.764;2023-06-05T15:50:27;31.10;42.30
11838;DHT22;5978;51.020;6.764;2023-06-05T15:52:53;30.20;43.30
11838;DHT22;5978;51.020;6.764;2023-06-05T15:55:19;29.70;43.80
11838;DHT22;5978;51.020;6.764;2023-06-05T15:57:45;29.20;44.50
11838;DHT22;5978;51.020;6.764;2023-06-05T16:00:14;29.00;45.70
11838;DHT22;5978;51.020;6.764;2023-06-05T16:02:40;28.80;46.50
11838;DHT22;5978;51.020;6.764;2023-06-05T16:05:06;28.40;46.00
11838;DHT22;5978;51.020;6.764;2023-06-05T16:07:32;28.00;46.50
11838;DHT22;5978;51.020;6.764;2023-06-05T16:09:57;27.90;47.40
11838;DHT22;5978;51.020;6.764;2023-06-05T16:12:23;27.90;48.00
11838;DHT22;5978;51.020;6.764;2023-06-05T16:14:48;27.80;47.70
11838;DHT22;5978;51.020;6.764;2023-06-05T16:17:14;27.90;47.50
11838;DHT22;5978;51.020;6.764;2023-06-05T16:19:40;27.70;47.50
11838;DHT22;5978;51.020;6.764;2023-06-05T16:22:05;27.70;47.30
11838;DHT22;5978;51.020;6.764;2023-06-05T16:24:31;27.60;47.40
11838;DHT22;5978;51.020;6.764;2023-06-05T16:26:59;27.60;47.80